Sargodha Weather



Sargodha's Current Weather

Temprature 10.74o clear sky

clear sky

Rain: 0 %

Min Temprature10.74o
Max Temprature10.74o
Humidity87
Wind Speed2.62 m/h
Sun Rise07:01:38
Sun Set17:05:52
Current Time: 14-Dec-2019 08:13:26
Lat/Lon: 32.09, 72.68




Sargodha's Geo Location



Sargodha's Weather Forecast

Time Overall Temp Min Temp Max Temp Humidity Wind Speed Rain
14-Dec-2019 (Sat)
11:00:00 clear sky 17.310 17.310 17.310 51 2.99 m/h 0 %
14:00:00 few clouds 19.620 19.620 19.620 38 2.51 m/h 0 %
17:00:00 scattered clouds 17.550 17.550 17.550 44 0.93 m/h 0 %
20:00:00 light rain 14.100 14.100 14.100 63 3.15 m/h 13 %
23:00:00 scattered clouds 12.490 12.490 12.490 70 2.45 m/h 0 %
15-Dec-2019 (Sun)
02:00:00 clear sky 11.070 11.070 11.070 76 1.1 m/h 0 %
05:00:00 clear sky 10.260 10.260 10.260 79 1.06 m/h 0 %
08:00:00 clear sky 11.640 11.640 11.640 70 0.9 m/h 0 %
11:00:00 clear sky 18.180 18.180 18.180 41 2.22 m/h 0 %
14:00:00 clear sky 20.080 20.080 20.080 31 2.56 m/h 0 %
17:00:00 clear sky 16.500 16.500 16.500 37 1.7 m/h 0 %
20:00:00 clear sky 13.010 13.010 13.010 55 1.27 m/h 0 %
23:00:00 clear sky 11.720 11.720 11.720 61 0.77 m/h 0 %
16-Dec-2019 (Mon)
02:00:00 clear sky 10.920 10.920 10.920 64 1.01 m/h 0 %
05:00:00 clear sky 10.280 10.280 10.280 65 1.49 m/h 0 %
08:00:00 clear sky 11.440 11.440 11.440 57 1.26 m/h 0 %
11:00:00 clear sky 18.760 18.760 18.760 32 2.04 m/h 0 %
14:00:00 clear sky 20.880 20.880 20.880 23 2.89 m/h 0 %
17:00:00 clear sky 16.770 16.770 16.770 28 2.86 m/h 0 %
20:00:00 clear sky 13.170 13.170 13.170 34 1.89 m/h 0 %
23:00:00 clear sky 11.710 11.710 11.710 38 1.61 m/h 0 %
17-Dec-2019 (Tue)
02:00:00 clear sky 10.820 10.820 10.820 36 1.5 m/h 0 %
05:00:00 clear sky 10.070 10.070 10.070 35 1.03 m/h 0 %
08:00:00 broken clouds 11.740 11.740 11.740 30 1.27 m/h 0 %
11:00:00 scattered clouds 19.510 19.510 19.510 15 2.78 m/h 0 %
14:00:00 clear sky 21.910 21.910 21.910 12 3.7 m/h 0 %
17:00:00 few clouds 16.440 16.440 16.440 15 2.91 m/h 0 %
20:00:00 clear sky 12.600 12.600 12.600 20 1.88 m/h 0 %
23:00:00 scattered clouds 11.350 11.350 11.350 22 1.09 m/h 0 %
18-Dec-2019 (Wed)
02:00:00 overcast clouds 11.130 11.130 11.130 21 1.32 m/h 0 %
05:00:00 overcast clouds 10.030 10.030 10.030 21 0.76 m/h 0 %
08:00:00 overcast clouds 11.550 11.550 11.550 19 0.71 m/h 0 %
11:00:00 broken clouds 18.850 18.850 18.850 12 1.06 m/h 0 %
14:00:00 overcast clouds 21.190 21.190 21.190 10 1.4 m/h 0 %
17:00:00 overcast clouds 16.360 16.360 16.360 13 0.62 m/h 0 %
20:00:00 broken clouds 13.730 13.730 13.730 18 1.04 m/h 0 %
23:00:00 scattered clouds 12.030 12.030 12.030 19 1.07 m/h 0 %
19-Dec-2019 (Thu)
02:00:00 clear sky 11.170 11.170 11.170 23 1.79 m/h 0 %
05:00:00 clear sky 10.050 10.050 10.050 25 1.33 m/h 0 %
08:00:00 overcast clouds 12.110 12.110 12.110 22 0.44 m/h 0 %

Famous Cities (61)